Time;durP1;ratioP1;P1;durP2;ratioP2;P2;SDS_P1;SDS_P2;PMS_P1;PMS_P2;Temp;Humidity;BMP_temperature;BMP_pressure;BME280_temperature;BME280_humidity;BME280_pressure;Samples;Min_cycle;Max_cycle;Signal;HPM_P1;HPM_P2
2021/01/20 00:01:13;;;;;;;4.25;1.42;;;;;;;5.66;58.51;100133.50;7941876;28;20034;-63
2021/01/20 00:05:05;;;;;;;3.05;1.65;;;;;;;5.59;58.52;100130.41;7944208;28;20118;-64
2021/01/20 00:08:56;;;;;;;4.35;1.33;;;;;;;5.59;58.66;100130.41;7943682;28;20065;-63
2021/01/20 00:12:48;;;;;;;3.30;1.33;;;;;;;5.56;58.44;100124.50;7917797;28;20088;-64
2021/01/20 00:16:38;;;;;;;3.13;1.70;;;;;;;5.50;58.51;100101.44;7881637;28;20043;-63
2021/01/20 00:20:29;;;;;;;5.05;1.50;;;;;;;5.46;58.58;100099.94;7888078;28;20105;-63
2021/01/20 00:24:19;;;;;;;7.28;2.00;;;;;;;5.44;58.56;100093.94;7887086;28;20031;-63
2021/01/20 00:28:10;;;;;;;4.63;2.22;;;;;;;5.40;58.59;100079.44;7888501;28;20053;-62
2021/01/20 00:32:01;;;;;;;3.35;2.13;;;;;;;5.37;58.79;100059.63;7927335;28;20034;-64
2021/01/20 00:35:52;;;;;;;3.53;1.77;;;;;;;5.36;58.63;100057.09;7949484;28;20449;-64
2021/01/20 00:39:42;;;;;;;3.80;1.67;;;;;;;5.36;58.72;100052.72;7949571;28;20571;-63
2021/01/20 00:43:33;;;;;;;4.53;1.95;;;;;;;5.36;58.77;100038.84;7948292;28;20056;-63
2021/01/20 00:47:25;;;;;;;4.47;1.90;;;;;;;5.34;58.73;100030.31;7949083;28;20068;-64
2021/01/20 00:51:16;;;;;;;2.63;1.52;;;;;;;5.39;58.48;100029.13;7949724;28;20607;-64
2021/01/20 00:55:08;;;;;;;4.35;1.60;;;;;;;5.41;58.46;100014.22;7949396;28;20061;-64
2021/01/20 00:58:59;;;;;;;6.10;2.10;;;;;;;5.42;58.49;100017.69;7948022;28;20048;-64
2021/01/20 01:02:50;;;;;;;4.18;2.13;;;;;;;5.42;58.32;100010.72;7946878;28;20050;-64
2021/01/20 01:06:42;;;;;;;3.35;2.00;;;;;;;5.40;58.16;100007.34;7947336;28;20041;-64
2021/01/20 01:10:32;;;;;;;3.33;2.03;;;;;;;5.40;58.27;99994.31;7947422;28;20048;-65
2021/01/20 01:14:31;;;;;;;6.70;2.70;;;;;;;5.35;58.32;100001.56;7946833;28;20430;-64
2021/01/20 01:18:34;;;;;;;5.55;2.40;;;;;;;5.30;58.33;99981.94;7946567;28;20050;-64
2021/01/20 01:22:25;;;;;;;5.18;2.00;;;;;;;5.33;58.64;99984.34;7948289;28;20121;-65
2021/01/20 01:26:16;;;;;;;3.22;1.95;;;;;;;5.33;58.57;99977.38;7947392;28;20201;-63
2021/01/20 01:30:07;;;;;;;3.47;1.70;;;;;;;5.36;58.57;99968.53;7945091;28;20496;-64
2021/01/20 01:34:03;;;;;;;5.47;1.80;;;;;;;5.37;58.31;99965.00;7946729;28;20038;-62
2021/01/20 01:37:53;;;;;;;4.63;1.88;;;;;;;5.41;58.64;99976.91;7947876;28;20029;-63
2021/01/20 01:42:00;;;;;;;2.10;1.55;;;;;;;5.45;58.31;99970.59;7946207;28;20478;-65
2021/01/20 01:45:51;;;;;;;4.13;1.80;;;;;;;5.45;58.40;99966.22;7945771;28;20128;-64
2021/01/20 01:49:42;;;;;;;3.70;1.60;;;;;;;5.51;58.34;99968.50;7947920;28;20045;-64
2021/01/20 01:53:35;;;;;;;2.20;1.38;;;;;;;5.55;58.23;99974.34;7946104;28;20147;-63
2021/01/20 01:57:42;;;;;;;4.65;2.25;;;;;;;5.54;58.06;99968.31;7947203;28;20449;-63
2021/01/20 02:01:34;;;;;;;2.53;1.38;;;;;;;5.60;57.75;99967.91;7945957;28;20073;-64
2021/01/20 02:05:28;;;;;;;2.88;1.52;;;;;;;5.61;58.10;99972.22;7946048;28;20453;-65
2021/01/20 02:09:21;;;;;;;3.20;1.85;;;;;;;5.62;57.63;99966.06;7931226;28;20380;-64
2021/01/20 02:13:30;;;;;;;2.75;1.52;;;;;;;5.63;57.95;99951.28;7914391;28;20035;-65
2021/01/20 02:18:02;;;;;;;2.00;1.80;;;;;;;5.62;57.93;99950.44;7913651;28;20046;-65
2021/01/20 02:22:35;;;;;;;4.15;1.80;;;;;;;5.63;58.22;99944.31;7930200;28;20045;-65
2021/01/20 02:27:08;;;;;;;2.17;1.17;;;;;;;5.64;58.23;99943.34;7875516;28;20064;-65
2021/01/20 02:31:16;;;;;;;2.50;1.50;;;;;;;5.67;57.95;99939.75;7943680;28;20045;-65
2021/01/20 02:35:10;;;;;;;3.00;1.42;;;;;;;5.69;58.11;99945.69;7946538;28;20123;-65
2021/01/20 02:39:01;;;;;;;1.98;1.27;;;;;;;5.71;57.90;99946.44;7945399;28;20058;-65
2021/01/20 02:42:52;;;;;;;3.08;1.27;;;;;;;5.73;57.97;99939.34;7944425;28;20038;-64
2021/01/20 02:46:51;;;;;;;4.70;1.45;;;;;;;5.75;58.07;99937.50;7943981;28;20052;-63
2021/01/20 02:50:53;;;;;;;1.55;1.30;;;;;;;5.77;58.04;99927.81;7945652;28;20038;-64
2021/01/20 02:54:45;;;;;;;1.30;1.10;;;;;;;5.79;58.09;99932.94;7943869;28;20076;-63
2021/01/20 02:58:54;;;;;;;3.55;1.40;;;;;;;5.80;58.11;99927.66;7945602;28;20056;-63
2021/01/20 03:03:20;;;;;;;2.00;1.17;;;;;;;5.80;57.84;99924.22;7870388;28;20689;-64
2021/01/20 03:07:12;;;;;;;2.90;1.23;;;;;;;5.82;58.09;99915.34;7945296;28;20548;-64
2021/01/20 03:11:05;;;;;;;2.00;1.30;;;;;;;5.83;57.77;99916.19;7945798;28;20547;-65
2021/01/20 03:14:58;;;;;;;3.03;1.40;;;;;;;5.87;57.94;99915.06;7943641;28;20026;-64
2021/01/20 03:18:48;;;;;;;2.25;1.33;;;;;;;5.89;57.83;99908.81;7944239;28;20033;-64
2021/01/20 03:22:39;;;;;;;2.42;1.23;;;;;;;5.89;57.74;99906.22;7944568;28;20128;-64
2021/01/20 03:26:29;;;;;;;3.03;1.20;;;;;;;5.91;57.94;99898.31;7944508;28;20034;-65
2021/01/20 03:30:20;;;;;;;2.85;1.70;;;;;;;5.91;57.91;99896.53;7944210;28;20040;-62
2021/01/20 03:34:11;;;;;;;1.80;1.40;;;;;;;5.93;58.08;99889.44;7944295;28;20125;-64
2021/01/20 03:38:03;;;;;;;1.75;1.20;;;;;;;5.93;57.86;99881.63;7945062;28;20124;-64
2021/01/20 03:41:53;;;;;;;2.80;1.48;;;;;;;5.94;58.12;99877.25;7944358;28;20037;-63
2021/01/20 03:45:44;;;;;;;2.45;1.33;;;;;;;5.95;57.85;99879.78;7943471;28;20038;-64
2021/01/20 03:49:34;;;;;;;1.90;1.20;;;;;;;5.93;58.22;99857.34;7944515;28;20121;-64
2021/01/20 03:53:25;;;;;;;1.85;1.30;;;;;;;5.99;58.27;99864.78;7943046;28;20038;-61
2021/01/20 03:57:15;;;;;;;4.65;1.55;;;;;;;6.02;58.11;99862.81;7944485;28;20136;-64
2021/01/20 04:01:06;;;;;;;4.13;1.77;;;;;;;6.05;58.08;99853.97;7943788;28;20502;-64
2021/01/20 04:04:56;;;;;;;1.83;1.42;;;;;;;6.07;57.93;99854.69;7943394;28;20095;-64
2021/01/20 04:08:49;;;;;;;4.22;1.95;;;;;;;6.10;58.01;99844.06;7942835;28;20105;-64
2021/01/20 04:12:40;;;;;;;2.15;1.25;;;;;;;6.15;58.04;99836.78;7919669;28;20069;-64
2021/01/20 04:16:30;;;;;;;1.40;1.23;;;;;;;6.19;58.27;99827.00;7910640;28;20137;-64
2021/01/20 04:20:21;;;;;;;2.53;1.40;;;;;;;6.20;58.00;99824.31;7912644;28;20410;-63
2021/01/20 04:24:15;;;;;;;1.60;1.13;;;;;;;6.25;57.88;99827.47;7912062;28;20034;-62
2021/01/20 04:28:05;;;;;;;1.90;1.30;;;;;;;6.30;57.88;99819.34;7912698;28;20235;-64
2021/01/20 04:31:56;;;;;;;1.67;1.40;;;;;;;6.31;57.75;99806.19;7931442;28;20525;-63
2021/01/20 04:35:46;;;;;;;3.85;1.40;;;;;;;6.33;57.59;99809.53;7942532;28;20145;-64
2021/01/20 04:39:37;;;;;;;3.47;1.33;;;;;;;6.33;57.99;99806.94;7943525;28;20554;-64
2021/01/20 04:43:28;;;;;;;3.45;1.73;;;;;;;6.33;57.42;99803.47;7943283;28;20121;-64
2021/01/20 04:47:19;;;;;;;2.28;1.40;;;;;;;6.33;57.35;99788.66;7942953;28;20125;-64
2021/01/20 04:51:11;;;;;;;4.93;2.03;;;;;;;6.34;57.43;99789.50;7943270;28;20034;-62
2021/01/20 04:55:02;;;;;;;2.00;1.52;;;;;;;6.32;57.10;99776.56;7943016;28;20066;-64
2021/01/20 04:58:55;;;;;;;1.52;1.25;;;;;;;6.33;57.29;99772.19;7943543;28;20038;-64
2021/01/20 05:02:46;;;;;;;1.20;1.10;;;;;;;6.32;57.18;99773.94;7941859;28;20153;-63
2021/01/20 05:06:37;;;;;;;2.45;1.38;;;;;;;6.31;56.93;99767.06;7948855;28;20406;-63
2021/01/20 05:10:27;;;;;;;3.25;1.40;;;;;;;6.29;57.25;99762.88;7948664;28;20770;-63
2021/01/20 05:14:18;;;;;;;1.85;1.20;;;;;;;6.28;56.74;99761.22;7948257;28;20042;-64
2021/01/20 05:18:09;;;;;;;2.63;1.15;;;;;;;6.27;57.17;99765.59;7947961;28;20073;-64
2021/01/20 05:22:04;;;;;;;2.25;1.58;;;;;;;6.26;56.81;99757.88;7948231;28;20041;-63
2021/01/20 05:25:55;;;;;;;2.88;1.13;;;;;;;6.25;57.05;99753.59;7948442;28;20690;-62
2021/01/20 05:29:56;;;;;;;1.10;1.00;;;;;;;6.21;56.79;99752.13;7948088;28;20125;-62
2021/01/20 05:33:47;;;;;;;1.13;0.95;;;;;;;6.24;56.62;99763.19;7947210;28;20044;-63
2021/01/20 05:37:45;;;;;;;2.45;1.55;;;;;;;6.27;56.42;99759.53;7946551;28;20125;-64
2021/01/20 05:41:36;;;;;;;1.92;1.30;;;;;;;6.29;56.62;99757.69;7947352;28;20040;-64
2021/01/20 05:45:28;;;;;;;2.15;1.25;;;;;;;6.30;56.66;99754.97;7947208;28;20121;-63
2021/01/20 05:49:27;;;;;;;1.73;1.00;;;;;;;6.34;56.51;99747.78;7948077;28;20629;-65
2021/01/20 05:53:17;;;;;;;2.35;1.23;;;;;;;6.35;57.01;99749.44;7946201;28;20044;-64
2021/01/20 05:57:09;;;;;;;1.52;1.10;;;;;;;6.33;56.77;99731.28;7947797;28;20117;-65
2021/01/20 06:01:11;;;;;;;2.50;1.20;;;;;;;6.42;56.94;99751.56;7946925;28;20124;-65
2021/01/20 06:05:02;;;;;;;1.23;1.10;;;;;;;6.46;57.12;99753.03;7946692;28;20127;-64
2021/01/20 06:08:52;;;;;;;2.25;1.10;;;;;;;6.48;57.00;99747.69;7947475;28;20038;-65
2021/01/20 06:12:43;;;;;;;2.35;1.10;;;;;;;6.51;56.68;99734.44;7946890;28;20112;-64
2021/01/20 06:16:36;;;;;;;1.85;1.10;;;;;;;6.54;56.75;99739.47;7945663;28;20215;-64
2021/01/20 06:20:27;;;;;;;1.67;0.98;;;;;;;6.56;56.96;99737.56;7912075;28;20077;-65
2021/01/20 06:24:31;;;;;;;1.15;0.85;;;;;;;6.60;56.94;99728.59;7915569;28;20422;-64
2021/01/20 06:28:22;;;;;;;1.40;1.00;;;;;;;6.64;56.65;99735.28;7915925;28;20034;-65
2021/01/20 06:32:19;;;;;;;1.77;0.95;;;;;;;6.67;56.75;99734.25;7935929;28;20046;-63
2021/01/20 06:36:09;;;;;;;1.63;0.90;;;;;;;6.68;56.90;99726.28;7946580;28;20040;-65
2021/01/20 06:40:00;;;;;;;1.13;0.80;;;;;;;6.64;56.79;99722.22;7946576;28;20046;-63
2021/01/20 06:43:51;;;;;;;3.03;0.82;;;;;;;6.72;57.08;99724.38;7944225;28;20411;-64
2021/01/20 06:47:56;;;;;;;1.35;1.00;;;;;;;6.71;56.77;99725.28;7945422;28;20137;-64
2021/01/20 06:52:10;;;;;;;0.93;0.85;;;;;;;6.69;56.84;99720.16;7945176;28;20045;-64
2021/01/20 06:56:00;;;;;;;1.08;0.90;;;;;;;6.69;56.75;99716.69;7945545;28;20049;-62
2021/01/20 07:00:06;;;;;;;3.50;1.27;;;;;;;6.67;56.88;99713.38;7944684;28;20301;-63
2021/01/20 07:03:59;;;;;;;1.50;0.90;;;;;;;6.64;57.14;99708.34;7911552;28;20584;-64
2021/01/20 07:07:50;;;;;;;0.80;0.80;;;;;;;6.67;57.05;99715.97;7900035;28;20039;-63
2021/01/20 07:11:56;;;;;;;1.67;0.95;;;;;;;6.65;56.56;99712.63;7911819;28;20030;-63
2021/01/20 07:15:49;;;;;;;1.42;1.02;;;;;;;6.65;56.96;99710.00;7909596;28;20065;-64
2021/01/20 07:19:40;;;;;;;1.23;1.00;;;;;;;6.64;56.57;99708.34;7911296;28;20643;-63
2021/01/20 07:23:32;;;;;;;1.08;0.95;;;;;;;6.65;56.69;99713.47;7909724;28;20432;-64
2021/01/20 07:27:23;;;;;;;0.82;0.80;;;;;;;6.65;56.87;99715.22;7911582;28;20446;-65
2021/01/20 07:31:14;;;;;;;1.58;1.20;;;;;;;6.67;56.84;99719.44;7926436;28;20125;-63
2021/01/20 07:35:16;;;;;;;0.75;0.75;;;;;;;6.68;56.79;99720.28;7944539;28;20058;-64
2021/01/20 07:39:33;;;;;;;0.90;0.88;;;;;;;6.67;56.83;99726.41;7943417;28;20041;-63
2021/01/20 07:43:24;;;;;;;2.20;0.90;;;;;;;6.69;56.59;99712.31;7940057;28;20049;-65
2021/01/20 07:47:14;;;;;;;1.10;1.00;;;;;;;6.70;56.41;99718.38;7942465;28;20502;-63
2021/01/20 07:51:05;;;;;;;1.67;1.00;;;;;;;6.68;56.47;99722.88;7942614;28;20187;-65
2021/01/20 07:54:56;;;;;;;2.65;0.90;;;;;;;6.70;56.91;99719.22;7943056;28;20502;-64
2021/01/20 07:58:46;;;;;;;1.38;0.70;;;;;;;6.72;56.53;99716.53;7943517;28;20502;-64
2021/01/20 08:02:47;;;;;;;1.17;1.00;;;;;;;6.72;56.70;99719.97;7943005;28;20458;-63
2021/01/20 08:06:41;;;;;;;1.63;1.00;;;;;;;6.75;56.67;99721.53;7943962;28;20046;-63
2021/01/20 08:10:33;;;;;;;1.00;0.88;;;;;;;6.75;56.67;99716.31;7943735;28;20041;-64
2021/01/20 08:14:24;;;;;;;1.27;0.93;;;;;;;6.79;56.69;99715.19;7941704;28;20061;-64
2021/01/20 08:18:16;;;;;;;3.78;0.98;;;;;;;6.83;56.71;99711.41;7907064;28;20049;-62
2021/01/20 08:22:17;;;;;;;0.80;0.80;;;;;;;6.85;56.71;99710.34;7911706;28;20049;-64
2021/01/20 08:26:08;;;;;;;2.17;0.70;;;;;;;6.87;56.67;99716.31;7911682;28;20038;-64
2021/01/20 08:29:59;;;;;;;1.40;0.80;;;;;;;6.88;56.45;99715.38;7915934;28;20037;-64
2021/01/20 08:33:49;;;;;;;0.63;0.63;;;;;;;6.91;56.33;99714.34;7918780;28;20049;-64
2021/01/20 08:37:40;;;;;;;2.13;1.33;;;;;;;6.92;56.51;99693.34;7912210;28;20034;-65
2021/01/20 08:41:31;;;;;;;2.15;1.35;;;;;;;6.97;56.40;99691.22;7917689;28;20422;-63
2021/01/20 08:45:22;;;;;;;0.95;0.80;;;;;;;7.00;56.39;99695.41;7917284;28;20117;-64
2021/01/20 08:49:18;;;;;;;1.10;0.75;;;;;;;7.03;56.24;99687.38;7918384;28;20034;-64
2021/01/20 08:53:23;;;;;;;1.77;0.80;;;;;;;7.08;56.32;99676.59;7912626;28;20169;-63
2021/01/20 08:57:18;;;;;;;2.70;1.17;;;;;;;7.09;55.90;99684.34;7897229;28;20038;-64
2021/01/20 09:01:14;;;;;;;1.20;0.70;;;;;;;7.11;56.16;99698.09;7906336;28;20579;-64
2021/01/20 09:05:05;;;;;;;0.80;0.80;;;;;;;7.15;56.13;99690.88;7907043;28;20101;-63
2021/01/20 09:08:57;;;;;;;2.28;1.10;;;;;;;7.21;55.75;99685.25;7906645;28;20046;-62
2021/01/20 09:12:47;;;;;;;1.58;1.15;;;;;;;7.24;55.54;99680.63;7905856;28;20089;-64
2021/01/20 09:16:38;;;;;;;1.45;0.80;;;;;;;7.27;56.10;99669.97;7904480;28;20037;-64
2021/01/20 09:20:28;;;;;;;1.45;0.88;;;;;;;7.29;55.97;99670.69;7906128;28;20142;-64
2021/01/20 09:24:19;;;;;;;3.95;1.00;;;;;;;7.30;55.64;99669.72;7906253;28;20398;-64
2021/01/20 09:28:10;;;;;;;3.08;1.30;;;;;;;7.36;55.43;99664.09;7902695;28;20127;-63
2021/01/20 09:32:00;;;;;;;2.65;0.93;;;;;;;7.40;55.56;99668.16;7904721;28;20754;-64
2021/01/20 09:35:51;;;;;;;1.52;1.30;;;;;;;7.42;55.72;99662.81;7904926;28;20077;-64
2021/01/20 09:39:42;;;;;;;1.42;1.08;;;;;;;7.48;55.87;99659.75;7905031;28;20733;-64
2021/01/20 09:43:33;;;;;;;1.15;0.90;;;;;;;7.52;55.19;99652.53;7905637;28;20042;-64
2021/01/20 09:47:23;;;;;;;3.55;1.30;;;;;;;7.54;55.56;99666.31;7904946;28;20038;-64
2021/01/20 09:51:14;;;;;;;1.75;1.02;;;;;;;7.56;55.25;99653.97;7904339;28;20109;-64
2021/01/20 09:55:06;;;;;;;1.55;1.00;;;;;;;7.58;54.77;99650.31;7905405;28;20546;-64
2021/01/20 09:58:56;;;;;;;1.58;1.17;;;;;;;7.61;55.18;99649.25;7902501;28;20126;-64
2021/01/20 10:02:47;;;;;;;1.40;1.27;;;;;;;7.64;54.62;99659.47;7904667;28;20046;-64
2021/01/20 10:06:38;;;;;;;1.85;1.17;;;;;;;7.64;54.97;99660.31;7905030;28;20076;-64
2021/01/20 10:10:29;;;;;;;2.95;1.92;;;;;;;7.65;54.79;99663.75;7904714;28;20030;-65
2021/01/20 10:14:19;;;;;;;1.70;1.10;;;;;;;7.66;54.83;99658.44;7904916;28;20684;-64
2021/01/20 10:18:10;;;;;;;1.92;1.20;;;;;;;7.68;54.45;99671.38;7903033;28;20558;-64
2021/01/20 10:22:00;;;;;;;1.35;1.20;;;;;;;7.66;54.36;99665.44;7903764;28;20034;-63
2021/01/20 10:25:52;;;;;;;1.15;0.90;;;;;;;7.67;54.30;99652.22;7903783;28;20050;-65
2021/01/20 10:29:43;;;;;;;2.88;1.50;;;;;;;7.66;54.11;99641.91;7902557;28;20030;-63
2021/01/20 10:33:33;;;;;;;1.58;1.00;;;;;;;7.66;54.30;99618.38;7899762;28;20050;-64
2021/01/20 10:37:24;;;;;;;1.30;1.10;;;;;;;7.64;53.91;99592.34;7903313;28;20424;-64
2021/01/20 10:41:17;;;;;;;1.50;1.17;;;;;;;7.66;54.13;99574.78;7904167;28;20034;-64
2021/01/20 10:45:09;;;;;;;3.65;1.42;;;;;;;7.66;53.59;99563.50;7904405;28;20044;-63
2021/01/20 10:49:01;;;;;;;3.40;1.40;;;;;;;7.70;53.73;99578.00;7901857;28;20521;-64
2021/01/20 10:52:52;;;;;;;2.50;1.35;;;;;;;7.74;53.79;99569.81;7903199;28;20038;-64
2021/01/20 10:56:42;;;;;;;1.73;1.10;;;;;;;7.80;53.46;99574.56;7903568;28;20406;-64
2021/01/20 11:00:33;;;;;;;1.17;1.05;;;;;;;7.86;53.88;99576.75;7905319;28;20050;-64
2021/01/20 11:04:23;;;;;;;3.20;1.50;;;;;;;7.92;53.33;99573.66;7904556;28;20656;-65
2021/01/20 11:08:14;;;;;;;2.08;1.30;;;;;;;7.97;54.00;99575.91;7903171;28;20087;-64
2021/01/20 11:12:05;;;;;;;2.13;1.30;;;;;;;8.04;53.48;99578.91;7904140;28;20113;-65
2021/01/20 11:15:56;;;;;;;1.50;1.05;;;;;;;8.06;53.87;99580.47;7904988;28;20800;-65
2021/01/20 11:19:46;;;;;;;3.50;1.35;;;;;;;8.08;53.93;99577.75;7903631;28;20034;-65
2021/01/20 11:23:37;;;;;;;3.67;1.58;;;;;;;8.11;53.65;99585.38;7901295;28;20515;-65
2021/01/20 11:27:28;;;;;;;1.98;1.48;;;;;;;8.13;53.80;99584.31;7901251;28;20046;-65
2021/01/20 11:31:19;;;;;;;1.48;1.20;;;;;;;8.15;53.49;99571.13;7903057;28;20680;-63
2021/01/20 11:35:10;;;;;;;10.85;2.33;;;;;;;8.12;53.60;99559.13;7902697;28;20615;-64
2021/01/20 11:39:01;;;;;;;5.20;1.48;;;;;;;8.16;53.36;99562.31;7916745;28;20089;-64
2021/01/20 11:42:58;;;;;;;2.47;1.40;;;;;;;8.17;53.27;99558.75;7902289;28;20042;-64
2021/01/20 11:46:48;;;;;;;4.35;1.65;;;;;;;8.14;52.96;99545.91;7901271;28;20085;-64
2021/01/20 11:50:39;;;;;;;2.33;1.23;;;;;;;8.16;52.88;99546.63;7902055;28;20026;-64
2021/01/20 11:54:31;;;;;;;3.95;1.80;;;;;;;8.18;52.80;99555.19;7899971;28;20044;-63
2021/01/20 11:58:22;;;;;;;2.15;1.33;;;;;;;8.18;52.97;99542.09;7900039;28;20153;-64
2021/01/20 12:02:13;;;;;;;2.17;0.88;;;;;;;8.23;52.83;99545.19;7899916;28;20514;-63
2021/01/20 12:06:03;;;;;;;1.48;1.00;;;;;;;8.25;53.09;99541.50;7902082;28;20045;-64
2021/01/20 12:09:54;;;;;;;2.55;1.38;;;;;;;8.30;52.83;99539.38;7901262;28;20124;-63
2021/01/20 12:13:45;;;;;;;1.85;1.13;;;;;;;8.34;52.75;99527.72;7900840;28;20038;-62
2021/01/20 12:17:36;;;;;;;6.95;1.90;;;;;;;8.34;52.89;99512.00;7899272;28;20053;-63
2021/01/20 12:21:26;;;;;;;2.42;1.52;;;;;;;8.39;52.73;99517.72;7902030;28;20030;-62
2021/01/20 12:25:17;;;;;;;2.70;1.30;;;;;;;8.42;52.49;99510.59;7900826;28;20058;-63
2021/01/20 12:29:07;;;;;;;2.95;1.27;;;;;;;8.44;52.46;99504.28;7899456;28;20042;-67
2021/01/20 12:32:58;;;;;;;1.90;1.23;;;;;;;8.47;52.64;99503.19;7901389;28;20052;-63
2021/01/20 12:36:49;;;;;;;2.10;1.40;;;;;;;8.48;52.52;99492.63;7901405;28;20419;-62
2021/01/20 12:40:39;;;;;;;6.88;1.83;;;;;;;8.50;52.54;99485.47;7899965;28;20042;-62
2021/01/20 12:44:30;;;;;;;3.80;1.17;;;;;;;8.51;52.23;99479.28;7900991;28;20061;-62
2021/01/20 12:48:21;;;;;;;1.23;1.13;;;;;;;8.52;52.17;99470.47;7899900;28;20038;-63
2021/01/20 12:52:11;;;;;;;3.70;1.45;;;;;;;8.53;52.30;99466.09;7899757;28;20038;-62
2021/01/20 12:56:02;;;;;;;3.15;1.20;;;;;;;8.52;52.30;99460.00;7900687;28;20096;-64
2021/01/20 12:59:52;;;;;;;1.90;1.15;;;;;;;8.51;51.98;99452.28;7899950;28;20780;-62
2021/01/20 13:03:43;;;;;;;2.03;1.30;;;;;;;8.54;52.04;99447.63;7899808;28;20038;-63
2021/01/20 13:07:34;;;;;;;2.05;1.27;;;;;;;8.53;51.83;99432.91;7899962;28;20034;-62
2021/01/20 13:11:25;;;;;;;1.55;1.15;;;;;;;8.54;52.41;99431.13;7901555;28;20041;-61
2021/01/20 13:15:16;;;;;;;1.58;1.05;;;;;;;8.55;51.77;99430.13;7900498;28;20044;-63
2021/01/20 13:19:07;;;;;;;1.73;1.15;;;;;;;8.56;51.97;99429.19;7900456;28;20077;-62
2021/01/20 13:22:57;;;;;;;2.83;1.15;;;;;;;8.57;52.27;99416.00;7899625;28;20042;-61
2021/01/20 13:26:48;;;;;;;2.40;1.17;;;;;;;8.55;51.70;99409.19;7901586;28;20035;-63
2021/01/20 13:30:39;;;;;;;1.38;1.10;;;;;;;8.54;51.95;99400.50;7904016;28;20096;-64
2021/01/20 13:34:29;;;;;;;1.45;1.10;;;;;;;8.55;51.52;99401.34;7906601;28;20038;-65
2021/01/20 13:38:20;;;;;;;3.03;1.20;;;;;;;8.46;51.54;99375.94;7904279;28;20046;-61
2021/01/20 13:42:10;;;;;;;1.85;1.05;;;;;;;8.53;51.31;99377.09;7905553;28;20100;-63
2021/01/20 13:46:01;;;;;;;2.97;1.25;;;;;;;8.53;51.57;99371.88;7905390;28;20096;-62
2021/01/20 13:49:52;;;;;;;2.72;1.40;;;;;;;8.51;51.38;99371.97;7905769;28;20034;-61
2021/01/20 13:53:42;;;;;;;3.38;1.67;;;;;;;8.53;51.09;99364.84;7905335;28;20084;-63
2021/01/20 13:57:33;;;;;;;2.05;1.25;;;;;;;8.54;51.47;99361.25;7903009;28;20044;-63
2021/01/20 14:01:24;;;;;;;2.35;1.30;;;;;;;8.52;51.13;99344.03;7904002;28;20483;-62
2021/01/20 14:05:15;;;;;;;3.15;1.67;;;;;;;8.57;51.15;99341.88;7905990;28;20038;-64
2021/01/20 14:09:06;;;;;;;3.00;1.17;;;;;;;8.58;51.14;99354.00;7903005;28;20113;-62
2021/01/20 14:12:56;;;;;;;3.50;1.33;;;;;;;8.57;50.96;99345.31;7904613;28;20054;-59
2021/01/20 14:16:48;;;;;;;2.60;1.15;;;;;;;8.54;51.13;99336.88;7903594;28;21993;-59
2021/01/20 14:20:39;;;;;;;3.08;1.77;;;;;;;8.58;51.14;99336.47;7903981;28;20066;-62
2021/01/20 14:24:29;;;;;;;2.67;1.58;;;;;;;8.56;51.09;99335.78;7903755;28;20045;-62
2021/01/20 14:28:20;;;;;;;4.15;2.00;;;;;;;8.53;50.92;99336.06;7901796;28;20034;-63
2021/01/20 14:32:10;;;;;;;4.10;2.20;;;;;;;8.52;51.02;99326.53;7903842;28;20126;-61
2021/01/20 14:36:01;;;;;;;4.07;2.05;;;;;;;8.50;50.89;99330.25;7904511;28;20410;-60
2021/01/20 14:39:52;;;;;;;3.00;1.98;;;;;;;8.49;50.84;99323.34;7921328;28;20048;-62
2021/01/20 14:43:42;;;;;;;5.15;1.80;;;;;;;8.44;51.09;99328.13;7903746;28;20039;-63
2021/01/20 14:47:33;;;;;;;3.28;1.88;;;;;;;8.42;50.94;99325.59;7902690;28;20042;-63
2021/01/20 14:51:23;;;;;;;3.45;1.50;;;;;;;8.40;51.21;99327.53;7903439;28;20034;-62
2021/01/20 14:55:14;;;;;;;2.67;1.60;;;;;;;8.37;51.02;99319.94;7903264;28;20034;-63
2021/01/20 14:59:06;;;;;;;2.45;1.60;;;;;;;8.36;51.17;99323.50;7899666;28;20146;-63
2021/01/20 15:02:56;;;;;;;3.25;1.70;;;;;;;8.33;51.02;99323.75;7904229;28;20030;-61
2021/01/20 15:06:47;;;;;;;7.22;2.15;;;;;;;8.31;51.01;99315.19;7903460;28;22017;-62
2021/01/20 15:10:38;;;;;;;2.53;1.50;;;;;;;8.28;51.25;99294.53;7902901;28;20041;-62
2021/01/20 15:14:28;;;;;;;7.07;1.63;;;;;;;8.19;50.90;99293.47;7902984;28;20407;-62
2021/01/20 15:18:19;;;;;;;2.63;1.70;;;;;;;8.18;51.23;99302.28;7902053;28;20521;-64
2021/01/20 15:22:09;;;;;;;5.28;1.63;;;;;;;8.14;51.06;99298.25;7902946;28;20042;-64
2021/01/20 15:26:02;;;;;;;6.38;1.70;;;;;;;8.12;51.08;99297.56;7901457;28;20594;-63
2021/01/20 15:29:53;;;;;;;3.63;1.80;;;;;;;8.07;51.24;99288.38;7900403;28;20741;-62
2021/01/20 15:33:45;;;;;;;3.75;1.83;;;;;;;8.06;51.02;99295.38;7902412;28;20042;-62
2021/01/20 15:37:35;;;;;;;5.05;2.47;;;;;;;8.02;51.07;99290.53;7901769;28;20060;-63
2021/01/20 15:41:26;;;;;;;3.08;1.63;;;;;;;7.94;51.21;99284.13;7902390;28;20034;-62
2021/01/20 15:45:18;;;;;;;4.70;1.95;;;;;;;7.92;51.17;99279.97;7901065;28;20034;-63
2021/01/20 15:49:09;;;;;;;3.65;2.15;;;;;;;7.87;51.27;99279.53;7901294;28;20033;-63
2021/01/20 15:53:01;;;;;;;4.95;2.08;;;;;;;7.83;51.17;99272.88;7901895;28;20403;-62
2021/01/20 15:56:51;;;;;;;4.65;2.03;;;;;;;7.80;51.07;99275.72;7898415;28;20050;-63
2021/01/20 16:00:42;;;;;;;5.97;2.17;;;;;;;7.77;51.33;99279.41;7900300;28;20058;-64
2021/01/20 16:04:32;;;;;;;4.75;2.22;;;;;;;7.76;51.49;99271.69;7902114;28;20080;-63
2021/01/20 16:08:23;;;;;;;2.40;1.48;;;;;;;7.73;51.15;99261.47;7901208;28;20042;-63
2021/01/20 16:12:14;;;;;;;3.17;1.60;;;;;;;7.77;51.03;99262.88;7901630;28;20045;-64
2021/01/20 16:16:05;;;;;;;2.53;1.48;;;;;;;7.74;51.17;99247.47;7899242;28;20035;-64
2021/01/20 16:19:55;;;;;;;2.25;1.30;;;;;;;7.77;51.31;99252.44;7899302;28;20039;-65
2021/01/20 16:23:46;;;;;;;3.70;1.50;;;;;;;7.78;51.27;99260.16;7902373;28;20612;-63
2021/01/20 16:27:38;;;;;;;2.10;1.20;;;;;;;7.83;51.45;99257.19;7899727;28;20041;-66
2021/01/20 16:31:28;;;;;;;2.58;1.52;;;;;;;7.84;51.55;99256.22;7901478;28;20132;-62
2021/01/20 16:35:20;;;;;;;3.00;1.40;;;;;;;7.85;51.42;99244.81;7902039;28;20386;-64
2021/01/20 16:39:11;;;;;;;2.60;1.70;;;;;;;7.85;51.26;99250.03;7900610;28;20085;-64
2021/01/20 16:43:02;;;;;;;5.35;1.80;;;;;;;7.81;51.37;99238.16;7900171;28;20046;-65
2021/01/20 16:46:53;;;;;;;3.15;1.98;;;;;;;7.76;51.11;99250.75;7899382;28;20057;-64
2021/01/20 16:50:43;;;;;;;2.95;1.75;;;;;;;7.75;51.26;99233.44;7899855;28;20380;-64
2021/01/20 16:54:34;;;;;;;5.82;3.10;;;;;;;7.73;51.35;99224.88;7899419;28;20035;-64
2021/01/20 16:58:25;;;;;;;6.43;2.30;;;;;;;7.69;51.63;99216.47;7897915;28;20699;-64
2021/01/20 17:02:16;;;;;;;3.88;2.05;;;;;;;7.65;51.25;99199.38;7905689;28;20053;-66
2021/01/20 17:06:06;;;;;;;6.32;1.95;;;;;;;7.61;51.59;99200.56;7908353;28;20053;-66
2021/01/20 17:09:57;;;;;;;8.73;2.53;;;;;;;7.58;51.22;99208.66;7905666;28;20085;-64
2021/01/20 17:13:47;;;;;;;5.05;2.15;;;;;;;7.53;51.47;99202.13;7904120;28;20566;-68
2021/01/20 17:17:38;;;;;;;2.83;1.63;;;;;;;7.52;51.58;99205.69;7904388;28;20038;-67
2021/01/20 17:21:28;;;;;;;4.85;2.45;;;;;;;7.50;51.44;99217.06;7903740;28;20038;-66
2021/01/20 17:25:19;;;;;;;5.00;2.17;;;;;;;7.47;51.51;99208.66;7903072;28;20743;-66
2021/01/20 17:29:10;;;;;;;8.20;2.55;;;;;;;7.45;51.91;99205.34;7887162;28;20033;-66
2021/01/20 17:33:01;;;;;;;5.70;3.10;;;;;;;7.45;51.48;99206.19;7906093;28;20526;-66
2021/01/20 17:36:51;;;;;;;10.65;3.88;;;;;;;7.43;51.82;99202.84;7905840;28;20038;-66
2021/01/20 17:40:42;;;;;;;9.13;3.90;;;;;;;7.42;52.09;99193.34;7905233;28;20038;-66
2021/01/20 17:44:32;;;;;;;4.95;2.95;;;;;;;7.41;51.93;99193.47;7904357;28;20710;-66
2021/01/20 17:48:24;;;;;;;6.60;2.55;;;;;;;7.43;51.78;99197.63;7905098;28;20038;-66
2021/01/20 17:52:14;;;;;;;6.43;2.20;;;;;;;7.45;51.80;99200.13;7906579;28;20842;-66
2021/01/20 17:56:05;;;;;;;5.70;2.40;;;;;;;7.43;51.93;99195.00;7906828;28;20688;-66
2021/01/20 17:59:56;;;;;;;6.03;2.50;;;;;;;7.45;52.53;99193.13;7904599;28;20030;-66
2021/01/20 18:03:46;;;;;;;3.78;2.03;;;;;;;7.49;52.01;99191.94;7904234;28;20042;-62
2021/01/20 18:07:40;;;;;;;5.78;2.22;;;;;;;7.48;52.38;99186.81;7903730;28;20114;-62
2021/01/20 18:11:30;;;;;;;5.45;2.63;;;;;;;7.51;52.10;99194.41;7903680;28;20038;-67
2021/01/20 18:15:21;;;;;;;4.45;2.60;;;;;;;7.47;52.54;99188.59;7903753;28;20034;-66
2021/01/20 18:19:12;;;;;;;5.30;2.65;;;;;;;7.53;52.35;99189.91;7904171;28;20038;-67
2021/01/20 18:23:02;;;;;;;4.32;2.58;;;;;;;7.50;52.23;99172.66;7902701;28;20047;-66
2021/01/20 18:26:53;;;;;;;5.80;2.50;;;;;;;7.52;52.22;99174.31;7902407;28;20776;-66